sensor_id;sensor_type;location;lat;lon;timestamp;P1;durP1;ratioP1;P2;durP2;ratioP2
71236;SDS011;58984;51.960;5.582;2023-03-14T00:00:35;9.18;;;3.92;;
71236;SDS011;58984;51.960;5.582;2023-03-14T00:03:01;6.78;;;3.88;;
71236;SDS011;58984;51.960;5.582;2023-03-14T00:05:26;10.70;;;4.30;;
71236;SDS011;58984;51.960;5.582;2023-03-14T00:07:52;8.52;;;4.10;;
71236;SDS011;58984;51.960;5.582;2023-03-14T00:10:18;10.05;;;4.07;;
71236;SDS011;58984;51.960;5.582;2023-03-14T00:12:44;12.50;;;4.30;;
71236;SDS011;58984;51.960;5.582;2023-03-14T00:15:10;12.30;;;4.40;;
71236;SDS011;58984;51.960;5.582;2023-03-14T00:17:37;6.88;;;3.83;;
71236;SDS011;58984;51.960;5.582;2023-03-14T00:20:04;10.75;;;4.30;;
71236;SDS011;58984;51.960;5.582;2023-03-14T00:22:36;7.10;;;4.07;;
71236;SDS011;58984;51.960;5.582;2023-03-14T00:25:03;10.43;;;4.28;;
71236;SDS011;58984;51.960;5.582;2023-03-14T00:27:30;13.02;;;4.40;;
71236;SDS011;58984;51.960;5.582;2023-03-14T00:29:56;8.45;;;3.78;;
71236;SDS011;58984;51.960;5.582;2023-03-14T00:32:21;7.43;;;4.00;;
71236;SDS011;58984;51.960;5.582;2023-03-14T00:34:47;9.27;;;4.30;;
71236;SDS011;58984;51.960;5.582;2023-03-14T00:37:13;8.38;;;4.03;;
71236;SDS011;58984;51.960;5.582;2023-03-14T00:39:38;9.32;;;4.30;;
71236;SDS011;58984;51.960;5.582;2023-03-14T00:42:04;7.57;;;3.30;;
71236;SDS011;58984;51.960;5.582;2023-03-14T00:44:30;9.38;;;4.28;;
71236;SDS011;58984;51.960;5.582;2023-03-14T00:46:56;6.18;;;3.60;;
71236;SDS011;58984;51.960;5.582;2023-03-14T00:49:22;5.95;;;3.10;;
71236;SDS011;58984;51.960;5.582;2023-03-14T00:51:48;7.97;;;3.42;;
71236;SDS011;58984;51.960;5.582;2023-03-14T00:54:14;4.50;;;3.13;;
71236;SDS011;58984;51.960;5.582;2023-03-14T00:56:39;9.15;;;3.17;;
71236;SDS011;58984;51.960;5.582;2023-03-14T00:59:05;8.57;;;3.25;;
71236;SDS011;58984;51.960;5.582;2023-03-14T01:01:31;10.27;;;3.05;;
71236;SDS011;58984;51.960;5.582;2023-03-14T01:03:56;5.15;;;2.42;;
71236;SDS011;58984;51.960;5.582;2023-03-14T01:06:23;7.22;;;2.78;;
71236;SDS011;58984;51.960;5.582;2023-03-14T01:08:51;6.15;;;3.20;;
71236;SDS011;58984;51.960;5.582;2023-03-14T01:11:20;8.18;;;2.92;;
71236;SDS011;58984;51.960;5.582;2023-03-14T01:13:51;4.20;;;2.35;;
71236;SDS011;58984;51.960;5.582;2023-03-14T01:16:18;5.35;;;2.60;;
71236;SDS011;58984;51.960;5.582;2023-03-14T01:18:45;8.00;;;3.00;;
71236;SDS011;58984;51.960;5.582;2023-03-14T01:21:15;9.82;;;2.90;;
71236;SDS011;58984;51.960;5.582;2023-03-14T01:23:42;8.95;;;3.00;;
71236;SDS011;58984;51.960;5.582;2023-03-14T01:26:09;8.63;;;2.72;;
71236;SDS011;58984;51.960;5.582;2023-03-14T01:28:39;8.60;;;4.03;;
71236;SDS011;58984;51.960;5.582;2023-03-14T01:31:06;12.20;;;3.63;;
71236;SDS011;58984;51.960;5.582;2023-03-14T01:33:34;6.80;;;2.88;;
71236;SDS011;58984;51.960;5.582;2023-03-14T01:36:00;8.40;;;2.85;;
71236;SDS011;58984;51.960;5.582;2023-03-14T01:38:27;9.25;;;3.20;;
71236;SDS011;58984;51.960;5.582;2023-03-14T01:40:54;8.10;;;2.75;;
71236;SDS011;58984;51.960;5.582;2023-03-14T01:43:19;5.07;;;2.83;;
71236;SDS011;58984;51.960;5.582;2023-03-14T01:48:34;6.55;;;2.60;;
71236;SDS011;58984;51.960;5.582;2023-03-14T01:51:04;10.00;;;3.30;;
71236;SDS011;58984;51.960;5.582;2023-03-14T01:53:36;5.05;;;2.80;;
71236;SDS011;58984;51.960;5.582;2023-03-14T01:56:03;6.45;;;2.80;;
71236;SDS011;58984;51.960;5.582;2023-03-14T01:58:30;5.68;;;3.08;;
71236;SDS011;58984;51.960;5.582;2023-03-14T02:00:59;6.97;;;3.08;;
71236;SDS011;58984;51.960;5.582;2023-03-14T02:03:26;9.60;;;3.80;;
71236;SDS011;58984;51.960;5.582;2023-03-14T02:05:53;6.03;;;3.25;;
71236;SDS011;58984;51.960;5.582;2023-03-14T02:08:21;10.25;;;3.85;;
71236;SDS011;58984;51.960;5.582;2023-03-14T02:10:49;6.53;;;3.20;;
71236;SDS011;58984;51.960;5.582;2023-03-14T02:13:16;10.02;;;3.20;;
71236;SDS011;58984;51.960;5.582;2023-03-14T02:15:43;6.53;;;3.05;;
71236;SDS011;58984;51.960;5.582;2023-03-14T02:18:09;7.45;;;3.60;;
71236;SDS011;58984;51.960;5.582;2023-03-14T02:23:10;8.70;;;3.40;;
71236;SDS011;58984;51.960;5.582;2023-03-14T02:25:45;5.85;;;2.92;;
71236;SDS011;58984;51.960;5.582;2023-03-14T02:28:18;6.68;;;3.05;;
71236;SDS011;58984;51.960;5.582;2023-03-14T02:30:45;8.30;;;3.25;;
71236;SDS011;58984;51.960;5.582;2023-03-14T02:33:11;5.63;;;2.90;;
71236;SDS011;58984;51.960;5.582;2023-03-14T02:35:41;7.75;;;3.05;;
71236;SDS011;58984;51.960;5.582;2023-03-14T02:38:16;8.15;;;3.30;;
71236;SDS011;58984;51.960;5.582;2023-03-14T02:40:53;7.05;;;3.17;;
71236;SDS011;58984;51.960;5.582;2023-03-14T02:43:19;9.63;;;3.25;;
71236;SDS011;58984;51.960;5.582;2023-03-14T02:45:45;7.10;;;3.00;;
71236;SDS011;58984;51.960;5.582;2023-03-14T02:50:43;4.32;;;3.05;;
71236;SDS011;58984;51.960;5.582;2023-03-14T02:53:11;6.25;;;3.13;;
71236;SDS011;58984;51.960;5.582;2023-03-14T02:55:39;6.82;;;2.72;;
71236;SDS011;58984;51.960;5.582;2023-03-14T02:58:04;5.38;;;2.70;;
71236;SDS011;58984;51.960;5.582;2023-03-14T03:00:30;7.47;;;3.05;;
71236;SDS011;58984;51.960;5.582;2023-03-14T03:02:55;7.03;;;2.90;;
71236;SDS011;58984;51.960;5.582;2023-03-14T03:05:21;8.15;;;2.90;;
71236;SDS011;58984;51.960;5.582;2023-03-14T03:07:47;7.53;;;3.40;;
71236;SDS011;58984;51.960;5.582;2023-03-14T03:10:12;9.45;;;3.17;;
71236;SDS011;58984;51.960;5.582;2023-03-14T03:12:38;9.25;;;3.22;;
71236;SDS011;58984;51.960;5.582;2023-03-14T03:15:04;7.57;;;3.45;;
71236;SDS011;58984;51.960;5.582;2023-03-14T03:17:30;8.85;;;2.83;;
71236;SDS011;58984;51.960;5.582;2023-03-14T03:19:55;4.13;;;2.63;;
71236;SDS011;58984;51.960;5.582;2023-03-14T03:22:21;9.05;;;3.38;;
71236;SDS011;58984;51.960;5.582;2023-03-14T03:24:46;7.00;;;3.00;;
71236;SDS011;58984;51.960;5.582;2023-03-14T03:27:13;7.35;;;2.97;;
71236;SDS011;58984;51.960;5.582;2023-03-14T03:29:39;4.75;;;2.33;;
71236;SDS011;58984;51.960;5.582;2023-03-14T03:32:04;5.70;;;2.80;;
71236;SDS011;58984;51.960;5.582;2023-03-14T03:34:30;5.13;;;2.80;;
71236;SDS011;58984;51.960;5.582;2023-03-14T03:36:56;7.85;;;2.95;;
71236;SDS011;58984;51.960;5.582;2023-03-14T03:39:22;5.40;;;3.28;;
71236;SDS011;58984;51.960;5.582;2023-03-14T03:41:47;14.85;;;3.50;;
71236;SDS011;58984;51.960;5.582;2023-03-14T03:44:13;7.18;;;3.10;;
71236;SDS011;58984;51.960;5.582;2023-03-14T03:46:39;5.63;;;3.00;;
71236;SDS011;58984;51.960;5.582;2023-03-14T03:49:04;9.48;;;3.40;;
71236;SDS011;58984;51.960;5.582;2023-03-14T03:51:30;7.85;;;3.13;;
71236;SDS011;58984;51.960;5.582;2023-03-14T03:53:56;8.52;;;3.17;;
71236;SDS011;58984;51.960;5.582;2023-03-14T03:56:22;7.38;;;3.40;;
71236;SDS011;58984;51.960;5.582;2023-03-14T03:58:47;9.77;;;4.13;;
71236;SDS011;58984;51.960;5.582;2023-03-14T04:01:13;7.93;;;3.47;;
71236;SDS011;58984;51.960;5.582;2023-03-14T04:03:38;10.70;;;4.25;;
71236;SDS011;58984;51.960;5.582;2023-03-14T04:06:06;9.88;;;4.03;;
71236;SDS011;58984;51.960;5.582;2023-03-14T04:08:36;8.70;;;3.53;;
71236;SDS011;58984;51.960;5.582;2023-03-14T04:11:02;9.40;;;3.85;;
71236;SDS011;58984;51.960;5.582;2023-03-14T04:13:28;8.55;;;3.50;;
71236;SDS011;58984;51.960;5.582;2023-03-14T04:15:54;8.65;;;4.13;;
71236;SDS011;58984;51.960;5.582;2023-03-14T04:18:20;12.45;;;3.78;;
71236;SDS011;58984;51.960;5.582;2023-03-14T04:20:56;9.85;;;3.90;;
71236;SDS011;58984;51.960;5.582;2023-03-14T04:23:23;7.63;;;3.95;;
71236;SDS011;58984;51.960;5.582;2023-03-14T04:25:50;8.95;;;4.00;;
71236;SDS011;58984;51.960;5.582;2023-03-14T04:28:16;11.38;;;4.05;;
71236;SDS011;58984;51.960;5.582;2023-03-14T04:30:42;9.82;;;3.60;;
71236;SDS011;58984;51.960;5.582;2023-03-14T04:33:07;6.97;;;3.50;;
71236;SDS011;58984;51.960;5.582;2023-03-14T04:35:33;7.47;;;3.33;;
71236;SDS011;58984;51.960;5.582;2023-03-14T04:37:58;8.88;;;3.13;;
71236;SDS011;58984;51.960;5.582;2023-03-14T04:40:24;5.88;;;2.75;;
71236;SDS011;58984;51.960;5.582;2023-03-14T04:42:50;8.02;;;3.05;;
71236;SDS011;58984;51.960;5.582;2023-03-14T04:45:16;10.18;;;3.40;;
71236;SDS011;58984;51.960;5.582;2023-03-14T04:47:41;7.10;;;3.53;;
71236;SDS011;58984;51.960;5.582;2023-03-14T04:50:07;13.13;;;3.47;;
71236;SDS011;58984;51.960;5.582;2023-03-14T04:52:34;9.82;;;3.05;;
71236;SDS011;58984;51.960;5.582;2023-03-14T04:55:00;5.80;;;2.90;;
71236;SDS011;58984;51.960;5.582;2023-03-14T04:57:26;8.00;;;2.58;;
71236;SDS011;58984;51.960;5.582;2023-03-14T04:59:52;7.85;;;2.95;;
71236;SDS011;58984;51.960;5.582;2023-03-14T05:02:17;6.95;;;2.70;;
71236;SDS011;58984;51.960;5.582;2023-03-14T05:04:43;7.72;;;2.92;;
71236;SDS011;58984;51.960;5.582;2023-03-14T05:07:08;5.43;;;2.60;;
71236;SDS011;58984;51.960;5.582;2023-03-14T05:09:34;9.63;;;2.45;;
71236;SDS011;58984;51.960;5.582;2023-03-14T05:12:00;9.90;;;3.13;;
71236;SDS011;58984;51.960;5.582;2023-03-14T05:14:25;5.13;;;2.50;;
71236;SDS011;58984;51.960;5.582;2023-03-14T05:16:51;5.85;;;2.50;;
71236;SDS011;58984;51.960;5.582;2023-03-14T05:19:16;7.13;;;2.47;;
71236;SDS011;58984;51.960;5.582;2023-03-14T05:21:42;4.20;;;2.10;;
71236;SDS011;58984;51.960;5.582;2023-03-14T05:24:08;6.10;;;2.65;;
71236;SDS011;58984;51.960;5.582;2023-03-14T05:26:33;4.40;;;2.78;;
71236;SDS011;58984;51.960;5.582;2023-03-14T05:28:59;4.53;;;2.70;;
71236;SDS011;58984;51.960;5.582;2023-03-14T05:31:24;5.57;;;2.58;;
71236;SDS011;58984;51.960;5.582;2023-03-14T05:33:50;6.75;;;2.45;;
71236;SDS011;58984;51.960;5.582;2023-03-14T05:36:16;7.38;;;2.42;;
71236;SDS011;58984;51.960;5.582;2023-03-14T05:38:41;6.22;;;2.60;;
71236;SDS011;58984;51.960;5.582;2023-03-14T05:41:07;5.50;;;2.28;;
71236;SDS011;58984;51.960;5.582;2023-03-14T05:43:32;6.22;;;2.70;;
71236;SDS011;58984;51.960;5.582;2023-03-14T05:45:58;7.70;;;2.53;;
71236;SDS011;58984;51.960;5.582;2023-03-14T05:48:24;7.72;;;2.70;;
71236;SDS011;58984;51.960;5.582;2023-03-14T05:50:58;5.05;;;2.30;;
71236;SDS011;58984;51.960;5.582;2023-03-14T05:53:24;5.88;;;2.53;;
71236;SDS011;58984;51.960;5.582;2023-03-14T05:55:52;7.47;;;2.55;;
71236;SDS011;58984;51.960;5.582;2023-03-14T05:58:18;5.75;;;2.47;;
71236;SDS011;58984;51.960;5.582;2023-03-14T06:00:44;4.65;;;2.58;;
71236;SDS011;58984;51.960;5.582;2023-03-14T06:03:09;4.38;;;2.70;;
71236;SDS011;58984;51.960;5.582;2023-03-14T06:05:35;4.82;;;3.17;;
71236;SDS011;58984;51.960;5.582;2023-03-14T06:08:01;5.28;;;2.90;;
71236;SDS011;58984;51.960;5.582;2023-03-14T06:10:26;5.00;;;3.17;;
71236;SDS011;58984;51.960;5.582;2023-03-14T06:12:52;7.63;;;2.78;;
71236;SDS011;58984;51.960;5.582;2023-03-14T06:15:17;7.20;;;2.88;;
71236;SDS011;58984;51.960;5.582;2023-03-14T06:17:43;6.93;;;3.13;;
71236;SDS011;58984;51.960;5.582;2023-03-14T06:20:09;7.82;;;3.60;;
71236;SDS011;58984;51.960;5.582;2023-03-14T06:22:35;11.05;;;3.80;;
71236;SDS011;58984;51.960;5.582;2023-03-14T06:25:00;4.88;;;3.47;;
71236;SDS011;58984;51.960;5.582;2023-03-14T06:27:26;7.40;;;3.78;;
71236;SDS011;58984;51.960;5.582;2023-03-14T06:29:52;8.75;;;3.67;;
71236;SDS011;58984;51.960;5.582;2023-03-14T06:32:17;6.82;;;4.05;;
71236;SDS011;58984;51.960;5.582;2023-03-14T06:34:43;6.22;;;3.67;;
71236;SDS011;58984;51.960;5.582;2023-03-14T06:37:09;6.22;;;3.70;;
71236;SDS011;58984;51.960;5.582;2023-03-14T06:39:34;9.65;;;4.80;;
71236;SDS011;58984;51.960;5.582;2023-03-14T06:42:00;9.35;;;4.35;;
71236;SDS011;58984;51.960;5.582;2023-03-14T06:44:26;12.95;;;4.57;;
71236;SDS011;58984;51.960;5.582;2023-03-14T06:46:51;6.32;;;4.10;;
71236;SDS011;58984;51.960;5.582;2023-03-14T06:49:17;11.30;;;5.15;;
71236;SDS011;58984;51.960;5.582;2023-03-14T06:51:42;11.65;;;5.15;;
71236;SDS011;58984;51.960;5.582;2023-03-14T06:54:08;10.82;;;4.70;;
71236;SDS011;58984;51.960;5.582;2023-03-14T06:56:33;12.43;;;5.10;;
71236;SDS011;58984;51.960;5.582;2023-03-14T06:58:59;8.13;;;4.97;;
71236;SDS011;58984;51.960;5.582;2023-03-14T07:01:29;8.45;;;4.95;;
71236;SDS011;58984;51.960;5.582;2023-03-14T07:03:55;7.53;;;5.05;;
71236;SDS011;58984;51.960;5.582;2023-03-14T07:06:21;8.93;;;4.50;;
71236;SDS011;58984;51.960;5.582;2023-03-14T07:08:47;7.68;;;4.30;;
71236;SDS011;58984;51.960;5.582;2023-03-14T07:11:13;5.95;;;3.88;;
71236;SDS011;58984;51.960;5.582;2023-03-14T07:13:39;6.15;;;3.40;;
71236;SDS011;58984;51.960;5.582;2023-03-14T07:16:05;4.55;;;2.83;;
71236;SDS011;58984;51.960;5.582;2023-03-14T07:18:32;2.97;;;2.20;;
71236;SDS011;58984;51.960;5.582;2023-03-14T07:20:57;3.65;;;2.67;;
71236;SDS011;58984;51.960;5.582;2023-03-14T07:23:23;2.80;;;2.05;;
71236;SDS011;58984;51.960;5.582;2023-03-14T07:25:49;3.92;;;1.83;;
71236;SDS011;58984;51.960;5.582;2023-03-14T07:28:16;4.38;;;1.90;;
71236;SDS011;58984;51.960;5.582;2023-03-14T07:30:41;2.83;;;1.77;;
71236;SDS011;58984;51.960;5.582;2023-03-14T07:33:07;1.90;;;1.40;;
71236;SDS011;58984;51.960;5.582;2023-03-14T07:35:33;2.08;;;1.55;;
71236;SDS011;58984;51.960;5.582;2023-03-14T07:37:58;4.65;;;1.33;;
71236;SDS011;58984;51.960;5.582;2023-03-14T07:40:24;3.28;;;1.60;;
71236;SDS011;58984;51.960;5.582;2023-03-14T07:42:49;3.40;;;1.40;;
71236;SDS011;58984;51.960;5.582;2023-03-14T07:45:15;1.50;;;1.25;;
71236;SDS011;58984;51.960;5.582;2023-03-14T07:47:41;2.30;;;1.38;;
71236;SDS011;58984;51.960;5.582;2023-03-14T07:50:07;3.53;;;1.23;;
71236;SDS011;58984;51.960;5.582;2023-03-14T07:52:33;2.67;;;1.55;;
71236;SDS011;58984;51.960;5.582;2023-03-14T07:54:58;1.30;;;1.00;;
71236;SDS011;58984;51.960;5.582;2023-03-14T07:57:24;1.30;;;1.17;;
71236;SDS011;58984;51.960;5.582;2023-03-14T07:59:50;2.05;;;1.40;;
71236;SDS011;58984;51.960;5.582;2023-03-14T08:02:15;3.17;;;1.50;;
71236;SDS011;58984;51.960;5.582;2023-03-14T08:04:42;2.33;;;1.50;;
71236;SDS011;58984;51.960;5.582;2023-03-14T08:07:08;1.67;;;1.30;;
71236;SDS011;58984;51.960;5.582;2023-03-14T08:09:34;2.53;;;1.30;;
71236;SDS011;58984;51.960;5.582;2023-03-14T08:11:59;2.33;;;1.45;;
71236;SDS011;58984;51.960;5.582;2023-03-14T08:14:25;1.40;;;1.30;;
71236;SDS011;58984;51.960;5.582;2023-03-14T08:16:51;1.52;;;1.30;;
71236;SDS011;58984;51.960;5.582;2023-03-14T08:19:17;1.58;;;1.10;;
71236;SDS011;58984;51.960;5.582;2023-03-14T08:21:43;1.95;;;0.98;;
71236;SDS011;58984;51.960;5.582;2023-03-14T08:24:08;3.92;;;1.40;;
71236;SDS011;58984;51.960;5.582;2023-03-14T08:26:34;1.13;;;0.93;;
71236;SDS011;58984;51.960;5.582;2023-03-14T08:29:00;2.80;;;1.08;;
71236;SDS011;58984;51.960;5.582;2023-03-14T08:31:26;1.80;;;1.15;;
71236;SDS011;58984;51.960;5.582;2023-03-14T08:33:52;3.28;;;1.00;;
71236;SDS011;58984;51.960;5.582;2023-03-14T08:36:18;2.92;;;0.90;;
71236;SDS011;58984;51.960;5.582;2023-03-14T08:38:44;1.20;;;1.10;;
71236;SDS011;58984;51.960;5.582;2023-03-14T08:41:10;4.90;;;2.15;;
71236;SDS011;58984;51.960;5.582;2023-03-14T08:43:36;3.42;;;2.28;;
71236;SDS011;58984;51.960;5.582;2023-03-14T08:46:01;2.47;;;1.73;;
71236;SDS011;58984;51.960;5.582;2023-03-14T08:48:28;8.15;;;2.50;;
71236;SDS011;58984;51.960;5.582;2023-03-14T08:51:03;3.75;;;1.65;;
71236;SDS011;58984;51.960;5.582;2023-03-14T08:53:30;3.60;;;1.48;;
71236;SDS011;58984;51.960;5.582;2023-03-14T08:55:56;3.63;;;1.75;;
71236;SDS011;58984;51.960;5.582;2023-03-14T08:58:22;4.47;;;2.40;;
71236;SDS011;58984;51.960;5.582;2023-03-14T09:00:48;2.63;;;1.50;;
71236;SDS011;58984;51.960;5.582;2023-03-14T09:03:14;4.03;;;1.52;;
71236;SDS011;58984;51.960;5.582;2023-03-14T09:05:39;3.40;;;1.30;;
71236;SDS011;58984;51.960;5.582;2023-03-14T09:08:05;1.92;;;1.38;;
71236;SDS011;58984;51.960;5.582;2023-03-14T09:10:31;5.78;;;1.70;;
71236;SDS011;58984;51.960;5.582;2023-03-14T09:12:56;2.78;;;1.40;;
71236;SDS011;58984;51.960;5.582;2023-03-14T09:15:23;2.17;;;1.25;;
71236;SDS011;58984;51.960;5.582;2023-03-14T09:17:49;1.63;;;1.30;;
71236;SDS011;58984;51.960;5.582;2023-03-14T09:20:14;1.40;;;1.23;;
71236;SDS011;58984;51.960;5.582;2023-03-14T09:22:40;3.80;;;1.52;;
71236;SDS011;58984;51.960;5.582;2023-03-14T09:25:06;4.03;;;1.38;;
71236;SDS011;58984;51.960;5.582;2023-03-14T09:27:32;4.72;;;1.33;;
71236;SDS011;58984;51.960;5.582;2023-03-14T09:29:57;3.92;;;1.38;;
71236;SDS011;58984;51.960;5.582;2023-03-14T09:32:23;4.85;;;1.55;;
71236;SDS011;58984;51.960;5.582;2023-03-14T09:34:48;2.92;;;1.20;;
71236;SDS011;58984;51.960;5.582;2023-03-14T09:37:14;5.55;;;1.38;;
71236;SDS011;58984;51.960;5.582;2023-03-14T09:39:41;3.28;;;1.63;;
71236;SDS011;58984;51.960;5.582;2023-03-14T09:42:07;3.58;;;1.58;;
71236;SDS011;58984;51.960;5.582;2023-03-14T09:44:39;2.80;;;1.63;;
71236;SDS011;58984;51.960;5.582;2023-03-14T09:47:21;5.03;;;1.98;;
71236;SDS011;58984;51.960;5.582;2023-03-14T09:49:48;3.10;;;1.58;;
71236;SDS011;58984;51.960;5.582;2023-03-14T09:52:15;5.50;;;1.88;;
71236;SDS011;58984;51.960;5.582;2023-03-14T09:54:49;6.47;;;2.42;;
71236;SDS011;58984;51.960;5.582;2023-03-14T09:57:18;8.98;;;2.83;;
71236;SDS011;58984;51.960;5.582;2023-03-14T09:59:46;7.32;;;3.03;;
71236;SDS011;58984;51.960;5.582;2023-03-14T10:04:50;5.93;;;2.75;;
71236;SDS011;58984;51.960;5.582;2023-03-14T10:07:19;7.70;;;2.53;;
71236;SDS011;58984;51.960;5.582;2023-03-14T10:12:16;10.70;;;3.25;;
71236;SDS011;58984;51.960;5.582;2023-03-14T10:14:50;10.77;;;3.47;;
71236;SDS011;58984;51.960;5.582;2023-03-14T10:17:19;8.73;;;3.22;;
71236;SDS011;58984;51.960;5.582;2023-03-14T10:22:17;7.30;;;3.47;;
71236;SDS011;58984;51.960;5.582;2023-03-14T10:24:50;8.65;;;3.72;;
71236;SDS011;58984;51.960;5.582;2023-03-14T10:27:23;23.33;;;5.18;;
71236;SDS011;58984;51.960;5.582;2023-03-14T10:29:57;10.68;;;4.40;;
71236;SDS011;58984;51.960;5.582;2023-03-14T10:32:31;10.10;;;4.18;;
71236;SDS011;58984;51.960;5.582;2023-03-14T10:37:53;14.93;;;4.95;;
71236;SDS011;58984;51.960;5.582;2023-03-14T10:40:24;10.52;;;3.40;;
71236;SDS011;58984;51.960;5.582;2023-03-14T10:43:04;10.00;;;3.65;;
71236;SDS011;58984;51.960;5.582;2023-03-14T10:48:16;11.48;;;4.53;;
71236;SDS011;58984;51.960;5.582;2023-03-14T10:53:58;7.13;;;3.83;;
71236;SDS011;58984;51.960;5.582;2023-03-14T10:56:59;9.63;;;4.13;;
71236;SDS011;58984;51.960;5.582;2023-03-14T10:59:27;10.05;;;4.00;;
71236;SDS011;58984;51.960;5.582;2023-03-14T11:02:03;14.88;;;4.40;;
71236;SDS011;58984;51.960;5.582;2023-03-14T11:15:13;12.55;;;4.57;;
71236;SDS011;58984;51.960;5.582;2023-03-14T11:23:18;12.57;;;5.03;;
71236;SDS011;58984;51.960;5.582;2023-03-14T11:31:52;14.85;;;4.45;;
71236;SDS011;58984;51.960;5.582;2023-03-14T11:34:30;12.65;;;4.30;;
71236;SDS011;58984;51.960;5.582;2023-03-14T11:37:14;18.45;;;4.50;;
71236;SDS011;58984;51.960;5.582;2023-03-14T11:42:30;16.05;;;4.60;;
71236;SDS011;58984;51.960;5.582;2023-03-14T11:44:58;10.52;;;4.70;;
71236;SDS011;58984;51.960;5.582;2023-03-14T11:47:34;13.70;;;4.70;;
71236;SDS011;58984;51.960;5.582;2023-03-14T11:50:07;17.17;;;4.07;;
71236;SDS011;58984;51.960;5.582;2023-03-14T11:52:44;8.73;;;3.75;;
71236;SDS011;58984;51.960;5.582;2023-03-14T11:57:51;6.45;;;3.38;;
71236;SDS011;58984;51.960;5.582;2023-03-14T12:00:21;11.88;;;3.70;;
71236;SDS011;58984;51.960;5.582;2023-03-14T12:05:59;8.52;;;3.30;;
71236;SDS011;58984;51.960;5.582;2023-03-14T12:08:39;8.85;;;2.97;;
71236;SDS011;58984;51.960;5.582;2023-03-14T12:11:19;8.45;;;3.20;;
71236;SDS011;58984;51.960;5.582;2023-03-14T12:13:57;8.07;;;3.35;;
71236;SDS011;58984;51.960;5.582;2023-03-14T12:18:48;5.90;;;2.90;;
71236;SDS011;58984;51.960;5.582;2023-03-14T12:21:18;10.50;;;3.08;;
71236;SDS011;58984;51.960;5.582;2023-03-14T12:23:51;6.35;;;3.40;;
71236;SDS011;58984;51.960;5.582;2023-03-14T12:26:19;7.10;;;2.95;;
71236;SDS011;58984;51.960;5.582;2023-03-14T12:31:38;6.57;;;3.13;;
71236;SDS011;58984;51.960;5.582;2023-03-14T12:41:59;5.90;;;2.58;;
71236;SDS011;58984;51.960;5.582;2023-03-14T12:46:58;7.53;;;2.85;;
71236;SDS011;58984;51.960;5.582;2023-03-14T12:49:45;6.28;;;2.53;;
71236;SDS011;58984;51.960;5.582;2023-03-14T12:52:14;8.80;;;2.50;;
71236;SDS011;58984;51.960;5.582;2023-03-14T12:57:33;4.72;;;2.15;;
71236;SDS011;58984;51.960;5.582;2023-03-14T13:03:02;8.35;;;2.75;;
71236;SDS011;58984;51.960;5.582;2023-03-14T13:05:57;6.30;;;2.53;;
71236;SDS011;58984;51.960;5.582;2023-03-14T13:08:35;4.82;;;2.40;;
71236;SDS011;58984;51.960;5.582;2023-03-14T13:11:07;4.57;;;2.10;;
71236;SDS011;58984;51.960;5.582;2023-03-14T13:13:37;6.57;;;2.33;;
71236;SDS011;58984;51.960;5.582;2023-03-14T13:16:10;4.68;;;1.75;;
71236;SDS011;58984;51.960;5.582;2023-03-14T13:18:44;3.75;;;1.98;;
71236;SDS011;58984;51.960;5.582;2023-03-14T13:21:16;4.80;;;2.20;;
71236;SDS011;58984;51.960;5.582;2023-03-14T13:26:52;6.82;;;2.47;;
71236;SDS011;58984;51.960;5.582;2023-03-14T13:31:51;4.88;;;2.35;;
71236;SDS011;58984;51.960;5.582;2023-03-14T13:34:19;5.18;;;2.10;;
71236;SDS011;58984;51.960;5.582;2023-03-14T13:36:44;3.88;;;1.85;;
71236;SDS011;58984;51.960;5.582;2023-03-14T13:39:12;7.68;;;2.75;;
71236;SDS011;58984;51.960;5.582;2023-03-14T13:41:42;7.40;;;1.90;;
71236;SDS011;58984;51.960;5.582;2023-03-14T13:44:20;5.28;;;2.03;;
71236;SDS011;58984;51.960;5.582;2023-03-14T13:47:00;4.83;;;2.23;;
71236;SDS011;58984;51.960;5.582;2023-03-14T13:49:28;3.65;;;1.90;;
71236;SDS011;58984;51.960;5.582;2023-03-14T13:51:57;5.82;;;1.98;;
71236;SDS011;58984;51.960;5.582;2023-03-14T13:54:23;4.47;;;1.83;;
71236;SDS011;58984;51.960;5.582;2023-03-14T13:57:00;3.65;;;1.58;;
71236;SDS011;58984;51.960;5.582;2023-03-14T13:59:28;8.20;;;2.30;;
71236;SDS011;58984;51.960;5.582;2023-03-14T14:01:55;5.28;;;2.08;;
71236;SDS011;58984;51.960;5.582;2023-03-14T14:04:24;5.80;;;2.33;;
71236;SDS011;58984;51.960;5.582;2023-03-14T14:09:31;3.22;;;1.80;;
71236;SDS011;58984;51.960;5.582;2023-03-14T14:14:32;4.53;;;2.10;;
71236;SDS011;58984;51.960;5.582;2023-03-14T14:17:09;7.07;;;1.88;;
71236;SDS011;58984;51.960;5.582;2023-03-14T14:19:38;6.97;;;2.00;;
71236;SDS011;58984;51.960;5.582;2023-03-14T14:22:05;7.88;;;1.80;;
71236;SDS011;58984;51.960;5.582;2023-03-14T14:24:33;7.93;;;2.20;;
71236;SDS011;58984;51.960;5.582;2023-03-14T14:27:02;3.53;;;1.65;;
71236;SDS011;58984;51.960;5.582;2023-03-14T14:29:33;7.28;;;2.10;;
71236;SDS011;58984;51.960;5.582;2023-03-14T14:32:03;4.82;;;2.22;;
71236;SDS011;58984;51.960;5.582;2023-03-14T14:34:29;6.57;;;2.30;;
71236;SDS011;58984;51.960;5.582;2023-03-14T14:37:02;4.68;;;1.85;;
71236;SDS011;58984;51.960;5.582;2023-03-14T14:39:28;8.00;;;2.55;;
71236;SDS011;58984;51.960;5.582;2023-03-14T14:41:56;6.53;;;2.20;;
71236;SDS011;58984;51.960;5.582;2023-03-14T14:44:29;6.63;;;2.42;;
71236;SDS011;58984;51.960;5.582;2023-03-14T14:46:58;6.63;;;2.63;;
71236;SDS011;58984;51.960;5.582;2023-03-14T14:49:30;7.80;;;2.58;;
71236;SDS011;58984;51.960;5.582;2023-03-14T14:52:04;8.25;;;2.42;;
71236;SDS011;58984;51.960;5.582;2023-03-14T14:54:43;10.52;;;3.03;;
71236;SDS011;58984;51.960;5.582;2023-03-14T14:59:54;6.82;;;2.85;;
71236;SDS011;58984;51.960;5.582;2023-03-14T15:04:53;10.80;;;2.83;;
71236;SDS011;58984;51.960;5.582;2023-03-14T15:07:18;10.13;;;2.88;;
71236;SDS011;58984;51.960;5.582;2023-03-14T15:09:44;4.68;;;2.45;;
71236;SDS011;58984;51.960;5.582;2023-03-14T15:12:10;6.18;;;1.98;;
71236;SDS011;58984;51.960;5.582;2023-03-14T15:14:35;6.72;;;2.63;;
71236;SDS011;58984;51.960;5.582;2023-03-14T15:17:01;5.05;;;2.60;;
71236;SDS011;58984;51.960;5.582;2023-03-14T15:19:28;8.32;;;2.95;;
71236;SDS011;58984;51.960;5.582;2023-03-14T15:21:57;8.57;;;2.65;;
71236;SDS011;58984;51.960;5.582;2023-03-14T15:24:23;5.50;;;2.65;;
71236;SDS011;58984;51.960;5.582;2023-03-14T15:26:48;8.75;;;2.83;;
71236;SDS011;58984;51.960;5.582;2023-03-14T15:29:14;8.52;;;2.95;;
71236;SDS011;58984;51.960;5.582;2023-03-14T15:31:40;5.85;;;2.30;;
71236;SDS011;58984;51.960;5.582;2023-03-14T15:34:08;6.18;;;2.30;;
71236;SDS011;58984;51.960;5.582;2023-03-14T15:36:34;8.75;;;2.80;;
71236;SDS011;58984;51.960;5.582;2023-03-14T15:39:01;5.15;;;2.08;;
71236;SDS011;58984;51.960;5.582;2023-03-14T15:41:27;5.45;;;2.42;;
71236;SDS011;58984;51.960;5.582;2023-03-14T15:43:53;4.57;;;2.55;;
71236;SDS011;58984;51.960;5.582;2023-03-14T15:46:20;4.95;;;2.08;;
71236;SDS011;58984;51.960;5.582;2023-03-14T15:48:46;7.47;;;2.70;;
71236;SDS011;58984;51.960;5.582;2023-03-14T15:51:16;6.82;;;2.45;;
71236;SDS011;58984;51.960;5.582;2023-03-14T15:53:42;6.75;;;2.50;;
71236;SDS011;58984;51.960;5.582;2023-03-14T15:56:11;5.15;;;2.90;;
71236;SDS011;58984;51.960;5.582;2023-03-14T15:58:42;4.97;;;2.70;;
71236;SDS011;58984;51.960;5.582;2023-03-14T16:01:11;7.97;;;2.75;;
71236;SDS011;58984;51.960;5.582;2023-03-14T16:03:37;7.85;;;3.42;;
71236;SDS011;58984;51.960;5.582;2023-03-14T16:06:03;7.20;;;3.70;;
71236;SDS011;58984;51.960;5.582;2023-03-14T16:08:29;8.68;;;3.25;;
71236;SDS011;58984;51.960;5.582;2023-03-14T16:10:56;5.78;;;3.03;;
71236;SDS011;58984;51.960;5.582;2023-03-14T16:13:23;4.95;;;2.60;;
71236;SDS011;58984;51.960;5.582;2023-03-14T16:15:56;5.75;;;2.67;;
71236;SDS011;58984;51.960;5.582;2023-03-14T16:18:23;7.30;;;3.10;;
71236;SDS011;58984;51.960;5.582;2023-03-14T16:20:53;7.68;;;2.80;;